sensor_id;sensor_type;location;lat;lon;timestamp;P1;durP1;ratioP1;P2;durP2;ratioP2
78308;SDS011;67566;42.022;21.356;2023-04-03T00:00:11;12.07;;;6.13;;
78308;SDS011;67566;42.022;21.356;2023-04-03T00:02:37;9.70;;;6.22;;
78308;SDS011;67566;42.022;21.356;2023-04-03T00:05:03;9.35;;;6.18;;
78308;SDS011;67566;42.022;21.356;2023-04-03T00:07:29;7.25;;;4.75;;
78308;SDS011;67566;42.022;21.356;2023-04-03T00:09:55;10.30;;;5.75;;
78308;SDS011;67566;42.022;21.356;2023-04-03T00:12:20;9.02;;;5.70;;
78308;SDS011;67566;42.022;21.356;2023-04-03T00:14:46;11.07;;;7.15;;
78308;SDS011;67566;42.022;21.356;2023-04-03T00:17:12;11.88;;;6.68;;
78308;SDS011;67566;42.022;21.356;2023-04-03T00:19:37;11.20;;;6.80;;
78308;SDS011;67566;42.022;21.356;2023-04-03T00:22:03;10.73;;;8.05;;
78308;SDS011;67566;42.022;21.356;2023-04-03T00:24:28;11.30;;;9.00;;
78308;SDS011;67566;42.022;21.356;2023-04-03T00:26:53;9.25;;;6.10;;
78308;SDS011;67566;42.022;21.356;2023-04-03T00:29:19;8.68;;;6.57;;
78308;SDS011;67566;42.022;21.356;2023-04-03T00:31:45;10.43;;;5.95;;
78308;SDS011;67566;42.022;21.356;2023-04-03T00:34:10;15.50;;;7.13;;
78308;SDS011;67566;42.022;21.356;2023-04-03T00:36:36;9.15;;;5.43;;
78308;SDS011;67566;42.022;21.356;2023-04-03T00:39:01;9.35;;;5.53;;
78308;SDS011;67566;42.022;21.356;2023-04-03T00:41:27;7.03;;;4.03;;
78308;SDS011;67566;42.022;21.356;2023-04-03T00:43:52;9.20;;;6.00;;
78308;SDS011;67566;42.022;21.356;2023-04-03T00:46:18;11.35;;;6.15;;
78308;SDS011;67566;42.022;21.356;2023-04-03T00:48:44;9.15;;;5.97;;
78308;SDS011;67566;42.022;21.356;2023-04-03T00:51:12;14.05;;;7.05;;
78308;SDS011;67566;42.022;21.356;2023-04-03T00:53:50;13.18;;;7.97;;
78308;SDS011;67566;42.022;21.356;2023-04-03T00:56:23;7.40;;;4.60;;
78308;SDS011;67566;42.022;21.356;2023-04-03T00:58:52;9.43;;;6.25;;
78308;SDS011;67566;42.022;21.356;2023-04-03T01:01:20;6.10;;;4.07;;
78308;SDS011;67566;42.022;21.356;2023-04-03T01:03:48;6.30;;;4.43;;
78308;SDS011;67566;42.022;21.356;2023-04-03T01:06:15;7.07;;;4.68;;
78308;SDS011;67566;42.022;21.356;2023-04-03T01:08:42;6.70;;;4.13;;
78308;SDS011;67566;42.022;21.356;2023-04-03T01:11:09;5.53;;;3.50;;
78308;SDS011;67566;42.022;21.356;2023-04-03T01:13:34;6.40;;;3.97;;
78308;SDS011;67566;42.022;21.356;2023-04-03T01:16:00;7.30;;;3.80;;
78308;SDS011;67566;42.022;21.356;2023-04-03T01:18:28;6.45;;;3.85;;
78308;SDS011;67566;42.022;21.356;2023-04-03T01:23:32;9.75;;;6.05;;
78308;SDS011;67566;42.022;21.356;2023-04-03T01:26:05;9.85;;;5.78;;
78308;SDS011;67566;42.022;21.356;2023-04-03T01:28:32;6.15;;;4.50;;
78308;SDS011;67566;42.022;21.356;2023-04-03T01:33:40;6.93;;;4.85;;
78308;SDS011;67566;42.022;21.356;2023-04-03T01:36:06;6.47;;;5.00;;
78308;SDS011;67566;42.022;21.356;2023-04-03T01:38:32;8.27;;;5.15;;
78308;SDS011;67566;42.022;21.356;2023-04-03T01:40:57;7.30;;;5.28;;
78308;SDS011;67566;42.022;21.356;2023-04-03T01:43:23;8.05;;;4.30;;
78308;SDS011;67566;42.022;21.356;2023-04-03T01:45:48;5.18;;;4.22;;
78308;SDS011;67566;42.022;21.356;2023-04-03T01:48:19;5.70;;;3.47;;
78308;SDS011;67566;42.022;21.356;2023-04-03T01:50:45;7.78;;;4.70;;
78308;SDS011;67566;42.022;21.356;2023-04-03T01:53:10;7.05;;;4.45;;
78308;SDS011;67566;42.022;21.356;2023-04-03T01:55:36;8.00;;;4.82;;
78308;SDS011;67566;42.022;21.356;2023-04-03T01:58:01;6.50;;;4.22;;
78308;SDS011;67566;42.022;21.356;2023-04-03T02:00:27;5.45;;;4.28;;
78308;SDS011;67566;42.022;21.356;2023-04-03T02:02:52;7.18;;;4.45;;
78308;SDS011;67566;42.022;21.356;2023-04-03T02:05:18;6.07;;;4.03;;
78308;SDS011;67566;42.022;21.356;2023-04-03T02:07:43;6.55;;;4.10;;
78308;SDS011;67566;42.022;21.356;2023-04-03T02:10:09;6.68;;;4.68;;
78308;SDS011;67566;42.022;21.356;2023-04-03T02:12:35;5.15;;;3.55;;
78308;SDS011;67566;42.022;21.356;2023-04-03T02:15:00;5.93;;;3.17;;
78308;SDS011;67566;42.022;21.356;2023-04-03T02:17:26;5.35;;;3.40;;
78308;SDS011;67566;42.022;21.356;2023-04-03T02:19:52;7.68;;;4.38;;
78308;SDS011;67566;42.022;21.356;2023-04-03T02:22:17;4.53;;;2.70;;
78308;SDS011;67566;42.022;21.356;2023-04-03T02:24:43;6.00;;;4.03;;
78308;SDS011;67566;42.022;21.356;2023-04-03T02:27:08;5.88;;;3.67;;
78308;SDS011;67566;42.022;21.356;2023-04-03T02:29:34;6.10;;;3.67;;
78308;SDS011;67566;42.022;21.356;2023-04-03T02:31:59;5.68;;;3.30;;
78308;SDS011;67566;42.022;21.356;2023-04-03T02:34:25;5.00;;;3.72;;
78308;SDS011;67566;42.022;21.356;2023-04-03T02:36:50;5.25;;;3.15;;
78308;SDS011;67566;42.022;21.356;2023-04-03T02:39:16;6.68;;;4.32;;
78308;SDS011;67566;42.022;21.356;2023-04-03T02:41:41;5.65;;;3.72;;
78308;SDS011;67566;42.022;21.356;2023-04-03T02:44:09;6.68;;;5.97;;
78308;SDS011;67566;42.022;21.356;2023-04-03T02:46:35;5.55;;;4.38;;
78308;SDS011;67566;42.022;21.356;2023-04-03T02:49:01;5.78;;;3.63;;
78308;SDS011;67566;42.022;21.356;2023-04-03T02:51:27;5.25;;;3.55;;
78308;SDS011;67566;42.022;21.356;2023-04-03T02:53:52;8.95;;;4.40;;
78308;SDS011;67566;42.022;21.356;2023-04-03T02:56:18;8.43;;;7.57;;
78308;SDS011;67566;42.022;21.356;2023-04-03T02:58:45;9.07;;;7.38;;
78308;SDS011;67566;42.022;21.356;2023-04-03T03:01:10;7.20;;;5.35;;
78308;SDS011;67566;42.022;21.356;2023-04-03T03:03:36;8.20;;;4.97;;
78308;SDS011;67566;42.022;21.356;2023-04-03T03:06:09;6.35;;;4.57;;
78308;SDS011;67566;42.022;21.356;2023-04-03T03:08:37;8.13;;;5.35;;
78308;SDS011;67566;42.022;21.356;2023-04-03T03:11:03;8.13;;;5.78;;
78308;SDS011;67566;42.022;21.356;2023-04-03T03:13:29;7.25;;;5.00;;
78308;SDS011;67566;42.022;21.356;2023-04-03T03:15:54;6.50;;;5.00;;
78308;SDS011;67566;42.022;21.356;2023-04-03T03:18:20;9.68;;;5.05;;
78308;SDS011;67566;42.022;21.356;2023-04-03T03:20:46;7.03;;;4.95;;
78308;SDS011;67566;42.022;21.356;2023-04-03T03:23:12;6.63;;;4.25;;
78308;SDS011;67566;42.022;21.356;2023-04-03T03:25:38;6.05;;;4.40;;
78308;SDS011;67566;42.022;21.356;2023-04-03T03:28:07;7.93;;;4.30;;
78308;SDS011;67566;42.022;21.356;2023-04-03T03:30:32;9.60;;;3.63;;
78308;SDS011;67566;42.022;21.356;2023-04-03T03:32:58;5.93;;;4.05;;
78308;SDS011;67566;42.022;21.356;2023-04-03T03:35:24;6.50;;;4.10;;
78308;SDS011;67566;42.022;21.356;2023-04-03T03:37:49;5.40;;;4.43;;
78308;SDS011;67566;42.022;21.356;2023-04-03T03:40:15;6.65;;;4.28;;
78308;SDS011;67566;42.022;21.356;2023-04-03T03:42:40;8.07;;;5.03;;
78308;SDS011;67566;42.022;21.356;2023-04-03T03:45:06;56.72;;;29.25;;
78308;SDS011;67566;42.022;21.356;2023-04-03T03:47:32;13.93;;;8.15;;
78308;SDS011;67566;42.022;21.356;2023-04-03T03:49:57;7.85;;;6.57;;
78308;SDS011;67566;42.022;21.356;2023-04-03T03:52:23;8.45;;;7.65;;
78308;SDS011;67566;42.022;21.356;2023-04-03T03:54:48;8.10;;;4.65;;
78308;SDS011;67566;42.022;21.356;2023-04-03T03:57:14;5.32;;;4.00;;
78308;SDS011;67566;42.022;21.356;2023-04-03T03:59:40;4.90;;;3.38;;
78308;SDS011;67566;42.022;21.356;2023-04-03T04:02:06;5.25;;;3.38;;
78308;SDS011;67566;42.022;21.356;2023-04-03T04:04:32;4.05;;;3.13;;
78308;SDS011;67566;42.022;21.356;2023-04-03T04:06:58;6.13;;;4.70;;
78308;SDS011;67566;42.022;21.356;2023-04-03T04:09:25;9.85;;;7.38;;
78308;SDS011;67566;42.022;21.356;2023-04-03T04:11:51;16.20;;;8.50;;
78308;SDS011;67566;42.022;21.356;2023-04-03T04:14:17;9.65;;;6.55;;
78308;SDS011;67566;42.022;21.356;2023-04-03T04:16:42;6.18;;;4.63;;
78308;SDS011;67566;42.022;21.356;2023-04-03T04:19:08;8.13;;;4.20;;
78308;SDS011;67566;42.022;21.356;2023-04-03T04:21:34;5.90;;;3.95;;
78308;SDS011;67566;42.022;21.356;2023-04-03T04:23:59;8.15;;;4.82;;
78308;SDS011;67566;42.022;21.356;2023-04-03T04:26:25;9.45;;;5.63;;
78308;SDS011;67566;42.022;21.356;2023-04-03T04:28:51;7.60;;;5.97;;
78308;SDS011;67566;42.022;21.356;2023-04-03T04:31:16;10.80;;;6.28;;
78308;SDS011;67566;42.022;21.356;2023-04-03T04:33:42;5.95;;;4.72;;
78308;SDS011;67566;42.022;21.356;2023-04-03T04:36:07;6.53;;;4.53;;
78308;SDS011;67566;42.022;21.356;2023-04-03T04:38:33;5.68;;;4.55;;
78308;SDS011;67566;42.022;21.356;2023-04-03T04:40:58;7.43;;;5.55;;
78308;SDS011;67566;42.022;21.356;2023-04-03T04:43:23;7.60;;;4.35;;
78308;SDS011;67566;42.022;21.356;2023-04-03T04:45:59;7.28;;;5.47;;
78308;SDS011;67566;42.022;21.356;2023-04-03T04:48:32;11.25;;;5.97;;
78308;SDS011;67566;42.022;21.356;2023-04-03T04:50:57;19.40;;;11.45;;
78308;SDS011;67566;42.022;21.356;2023-04-03T04:53:23;19.05;;;11.82;;
78308;SDS011;67566;42.022;21.356;2023-04-03T04:55:48;17.95;;;11.52;;
78308;SDS011;67566;42.022;21.356;2023-04-03T04:58:14;18.80;;;11.30;;
78308;SDS011;67566;42.022;21.356;2023-04-03T05:00:40;18.85;;;12.60;;
78308;SDS011;67566;42.022;21.356;2023-04-03T05:03:05;18.52;;;13.27;;
78308;SDS011;67566;42.022;21.356;2023-04-03T05:05:31;23.55;;;16.38;;
78308;SDS011;67566;42.022;21.356;2023-04-03T05:07:56;21.20;;;14.23;;
78308;SDS011;67566;42.022;21.356;2023-04-03T05:10:22;22.05;;;12.90;;
78308;SDS011;67566;42.022;21.356;2023-04-03T05:12:47;18.95;;;12.43;;
78308;SDS011;67566;42.022;21.356;2023-04-03T05:15:13;16.02;;;10.85;;
78308;SDS011;67566;42.022;21.356;2023-04-03T05:17:38;14.27;;;8.90;;
78308;SDS011;67566;42.022;21.356;2023-04-03T05:20:04;12.25;;;6.70;;
78308;SDS011;67566;42.022;21.356;2023-04-03T05:22:30;15.43;;;8.40;;
78308;SDS011;67566;42.022;21.356;2023-04-03T05:24:56;20.85;;;9.63;;
78308;SDS011;67566;42.022;21.356;2023-04-03T05:27:21;11.27;;;7.07;;
78308;SDS011;67566;42.022;21.356;2023-04-03T05:29:49;11.55;;;6.70;;
78308;SDS011;67566;42.022;21.356;2023-04-03T05:32:15;6.95;;;5.75;;
78308;SDS011;67566;42.022;21.356;2023-04-03T05:34:41;8.68;;;5.45;;
78308;SDS011;67566;42.022;21.356;2023-04-03T05:37:06;12.35;;;6.35;;
78308;SDS011;67566;42.022;21.356;2023-04-03T05:39:32;10.23;;;5.50;;
78308;SDS011;67566;42.022;21.356;2023-04-03T05:41:58;10.25;;;5.35;;
78308;SDS011;67566;42.022;21.356;2023-04-03T05:44:24;10.20;;;6.93;;
78308;SDS011;67566;42.022;21.356;2023-04-03T05:46:49;16.48;;;9.50;;
78308;SDS011;67566;42.022;21.356;2023-04-03T05:49:15;15.98;;;8.60;;
78308;SDS011;67566;42.022;21.356;2023-04-03T05:51:41;15.15;;;8.98;;
78308;SDS011;67566;42.022;21.356;2023-04-03T05:54:11;10.45;;;6.75;;
78308;SDS011;67566;42.022;21.356;2023-04-03T05:56:41;6.78;;;5.07;;
78308;SDS011;67566;42.022;21.356;2023-04-03T05:59:06;6.47;;;4.35;;
78308;SDS011;67566;42.022;21.356;2023-04-03T06:01:32;5.97;;;3.88;;
78308;SDS011;67566;42.022;21.356;2023-04-03T06:03:59;7.80;;;5.05;;
78308;SDS011;67566;42.022;21.356;2023-04-03T06:06:24;6.70;;;4.32;;
78308;SDS011;67566;42.022;21.356;2023-04-03T06:08:50;5.38;;;3.92;;
78308;SDS011;67566;42.022;21.356;2023-04-03T06:11:16;6.90;;;4.88;;
78308;SDS011;67566;42.022;21.356;2023-04-03T06:13:41;5.25;;;3.90;;
78308;SDS011;67566;42.022;21.356;2023-04-03T06:16:08;7.80;;;4.47;;
78308;SDS011;67566;42.022;21.356;2023-04-03T06:18:39;5.88;;;4.43;;
78308;SDS011;67566;42.022;21.356;2023-04-03T06:21:04;5.85;;;3.55;;
78308;SDS011;67566;42.022;21.356;2023-04-03T06:23:32;17.92;;;11.70;;
78308;SDS011;67566;42.022;21.356;2023-04-03T06:25:58;32.33;;;18.20;;
78308;SDS011;67566;42.022;21.356;2023-04-03T06:28:23;18.35;;;8.27;;
78308;SDS011;67566;42.022;21.356;2023-04-03T06:30:49;12.45;;;8.07;;
78308;SDS011;67566;42.022;21.356;2023-04-03T06:33:15;12.23;;;7.18;;
78308;SDS011;67566;42.022;21.356;2023-04-03T06:35:40;11.85;;;6.65;;
78308;SDS011;67566;42.022;21.356;2023-04-03T06:38:06;10.90;;;7.20;;
78308;SDS011;67566;42.022;21.356;2023-04-03T06:40:34;14.57;;;10.50;;
78308;SDS011;67566;42.022;21.356;2023-04-03T06:43:00;11.73;;;7.20;;
78308;SDS011;67566;42.022;21.356;2023-04-03T06:45:26;14.63;;;9.15;;
78308;SDS011;67566;42.022;21.356;2023-04-03T06:47:52;12.43;;;8.10;;
78308;SDS011;67566;42.022;21.356;2023-04-03T06:50:18;15.52;;;11.60;;
78308;SDS011;67566;42.022;21.356;2023-04-03T06:52:44;16.88;;;10.65;;
78308;SDS011;67566;42.022;21.356;2023-04-03T06:55:10;18.55;;;12.43;;
78308;SDS011;67566;42.022;21.356;2023-04-03T06:57:36;12.63;;;9.70;;
78308;SDS011;67566;42.022;21.356;2023-04-03T07:00:03;13.27;;;9.38;;
78308;SDS011;67566;42.022;21.356;2023-04-03T07:02:29;13.48;;;10.10;;
78308;SDS011;67566;42.022;21.356;2023-04-03T07:04:55;21.50;;;10.07;;
78308;SDS011;67566;42.022;21.356;2023-04-03T07:07:20;24.48;;;13.00;;
78308;SDS011;67566;42.022;21.356;2023-04-03T07:09:46;18.88;;;11.18;;
78308;SDS011;67566;42.022;21.356;2023-04-03T07:12:13;21.55;;;12.43;;
78308;SDS011;67566;42.022;21.356;2023-04-03T07:14:39;27.25;;;16.40;;
78308;SDS011;67566;42.022;21.356;2023-04-03T07:17:04;22.38;;;14.27;;
78308;SDS011;67566;42.022;21.356;2023-04-03T07:19:31;21.58;;;12.18;;
78308;SDS011;67566;42.022;21.356;2023-04-03T07:21:57;40.88;;;22.77;;
78308;SDS011;67566;42.022;21.356;2023-04-03T07:24:22;33.72;;;18.85;;
78308;SDS011;67566;42.022;21.356;2023-04-03T07:26:51;23.13;;;12.57;;
78308;SDS011;67566;42.022;21.356;2023-04-03T07:29:17;18.40;;;11.38;;
78308;SDS011;67566;42.022;21.356;2023-04-03T07:31:44;24.70;;;11.73;;
78308;SDS011;67566;42.022;21.356;2023-04-03T07:34:10;18.63;;;11.73;;
78308;SDS011;67566;42.022;21.356;2023-04-03T07:36:36;30.80;;;10.63;;
78308;SDS011;67566;42.022;21.356;2023-04-03T07:39:02;15.38;;;10.20;;
78308;SDS011;67566;42.022;21.356;2023-04-03T07:41:28;20.73;;;10.75;;
78308;SDS011;67566;42.022;21.356;2023-04-03T07:43:53;19.92;;;9.13;;
78308;SDS011;67566;42.022;21.356;2023-04-03T07:46:20;23.08;;;11.18;;
78308;SDS011;67566;42.022;21.356;2023-04-03T07:48:45;24.25;;;13.27;;
78308;SDS011;67566;42.022;21.356;2023-04-03T07:51:11;18.23;;;11.90;;
78308;SDS011;67566;42.022;21.356;2023-04-03T07:53:38;18.38;;;10.98;;
78308;SDS011;67566;42.022;21.356;2023-04-03T07:56:03;17.33;;;10.32;;
78308;SDS011;67566;42.022;21.356;2023-04-03T07:58:29;13.80;;;9.82;;
78308;SDS011;67566;42.022;21.356;2023-04-03T08:00:54;15.63;;;9.70;;
78308;SDS011;67566;42.022;21.356;2023-04-03T08:03:21;18.50;;;12.90;;
78308;SDS011;67566;42.022;21.356;2023-04-03T08:05:48;21.48;;;12.95;;
78308;SDS011;67566;42.022;21.356;2023-04-03T08:08:19;18.85;;;12.40;;
78308;SDS011;67566;42.022;21.356;2023-04-03T08:10:53;37.22;;;20.65;;
78308;SDS011;67566;42.022;21.356;2023-04-03T08:13:19;45.25;;;25.63;;
78308;SDS011;67566;42.022;21.356;2023-04-03T08:15:46;35.75;;;24.45;;
78308;SDS011;67566;42.022;21.356;2023-04-03T08:18:12;31.02;;;18.90;;
78308;SDS011;67566;42.022;21.356;2023-04-03T08:20:39;24.85;;;14.05;;
78308;SDS011;67566;42.022;21.356;2023-04-03T08:23:05;14.43;;;8.98;;
78308;SDS011;67566;42.022;21.356;2023-04-03T08:25:31;13.55;;;9.23;;
78308;SDS011;67566;42.022;21.356;2023-04-03T08:27:57;15.45;;;8.95;;
78308;SDS011;67566;42.022;21.356;2023-04-03T08:30:23;13.20;;;8.63;;
78308;SDS011;67566;42.022;21.356;2023-04-03T08:32:48;12.25;;;7.40;;
78308;SDS011;67566;42.022;21.356;2023-04-03T08:35:14;8.73;;;5.80;;
78308;SDS011;67566;42.022;21.356;2023-04-03T08:37:40;7.07;;;5.40;;
78308;SDS011;67566;42.022;21.356;2023-04-03T08:40:14;6.65;;;5.38;;
78308;SDS011;67566;42.022;21.356;2023-04-03T08:45:20;5.68;;;4.82;;
78308;SDS011;67566;42.022;21.356;2023-04-03T08:47:54;5.85;;;4.30;;
78308;SDS011;67566;42.022;21.356;2023-04-03T08:50:55;6.63;;;4.32;;
78308;SDS011;67566;42.022;21.356;2023-04-03T08:53:25;7.45;;;3.95;;
78308;SDS011;67566;42.022;21.356;2023-04-03T08:55:57;6.38;;;3.80;;
78308;SDS011;67566;42.022;21.356;2023-04-03T08:58:24;5.57;;;3.22;;
78308;SDS011;67566;42.022;21.356;2023-04-03T09:01:00;11.48;;;6.82;;
78308;SDS011;67566;42.022;21.356;2023-04-03T09:03:32;7.38;;;5.10;;
78308;SDS011;67566;42.022;21.356;2023-04-03T09:08:33;6.15;;;2.88;;
78308;SDS011;67566;42.022;21.356;2023-04-03T09:13:59;4.57;;;2.92;;
78308;SDS011;67566;42.022;21.356;2023-04-03T09:19:41;5.88;;;3.28;;
78308;SDS011;67566;42.022;21.356;2023-04-03T09:22:25;4.78;;;3.28;;
78308;SDS011;67566;42.022;21.356;2023-04-03T09:25:05;3.92;;;3.05;;
78308;SDS011;67566;42.022;21.356;2023-04-03T09:27:39;5.57;;;3.08;;
78308;SDS011;67566;42.022;21.356;2023-04-03T09:30:04;4.40;;;3.58;;
78308;SDS011;67566;42.022;21.356;2023-04-03T09:32:35;4.60;;;3.40;;
78308;SDS011;67566;42.022;21.356;2023-04-03T09:35:13;6.55;;;3.72;;
78308;SDS011;67566;42.022;21.356;2023-04-03T09:37:52;3.50;;;2.90;;
78308;SDS011;67566;42.022;21.356;2023-04-03T09:42:50;5.40;;;3.20;;
78308;SDS011;67566;42.022;21.356;2023-04-03T09:50:31;7.57;;;5.18;;
78308;SDS011;67566;42.022;21.356;2023-04-03T09:52:59;8.55;;;5.55;;
78308;SDS011;67566;42.022;21.356;2023-04-03T09:55:32;6.18;;;4.65;;
78308;SDS011;67566;42.022;21.356;2023-04-03T09:58:02;7.07;;;5.03;;
78308;SDS011;67566;42.022;21.356;2023-04-03T10:00:34;5.65;;;4.57;;
78308;SDS011;67566;42.022;21.356;2023-04-03T10:03:01;5.22;;;4.15;;
78308;SDS011;67566;42.022;21.356;2023-04-03T10:10:38;4.45;;;3.88;;
78308;SDS011;67566;42.022;21.356;2023-04-03T10:13:20;4.30;;;3.15;;
78308;SDS011;67566;42.022;21.356;2023-04-03T10:24:52;5.00;;;3.75;;
78308;SDS011;67566;42.022;21.356;2023-04-03T10:35:46;10.63;;;7.25;;
78308;SDS011;67566;42.022;21.356;2023-04-03T10:41:20;12.43;;;8.82;;
78308;SDS011;67566;42.022;21.356;2023-04-03T10:52:22;10.57;;;6.95;;
78308;SDS011;67566;42.022;21.356;2023-04-03T10:57:47;5.68;;;3.90;;
78308;SDS011;67566;42.022;21.356;2023-04-03T11:02:54;4.18;;;3.53;;
78308;SDS011;67566;42.022;21.356;2023-04-03T11:08:07;6.70;;;4.75;;
78308;SDS011;67566;42.022;21.356;2023-04-03T11:11:30;11.15;;;7.50;;
78308;SDS011;67566;42.022;21.356;2023-04-03T11:16:29;13.27;;;10.25;;
78308;SDS011;67566;42.022;21.356;2023-04-03T11:19:05;16.50;;;10.52;;
78308;SDS011;67566;42.022;21.356;2023-04-03T11:21:36;11.95;;;8.10;;
78308;SDS011;67566;42.022;21.356;2023-04-03T11:24:16;8.02;;;6.20;;
78308;SDS011;67566;42.022;21.356;2023-04-03T11:26:50;7.25;;;4.57;;
78308;SDS011;67566;42.022;21.356;2023-04-03T11:29:18;8.10;;;5.85;;
78308;SDS011;67566;42.022;21.356;2023-04-03T11:36:54;9.93;;;7.35;;
78308;SDS011;67566;42.022;21.356;2023-04-03T11:42:13;11.45;;;8.93;;
78308;SDS011;67566;42.022;21.356;2023-04-03T11:44:41;7.20;;;4.88;;
78308;SDS011;67566;42.022;21.356;2023-04-03T11:47:11;21.80;;;11.68;;
78308;SDS011;67566;42.022;21.356;2023-04-03T11:49:58;11.05;;;7.20;;
78308;SDS011;67566;42.022;21.356;2023-04-03T12:08:38;16.02;;;10.32;;
78308;SDS011;67566;42.022;21.356;2023-04-03T12:13:40;6.78;;;5.45;;
78308;SDS011;67566;42.022;21.356;2023-04-03T12:21:14;16.25;;;8.18;;
78308;SDS011;67566;42.022;21.356;2023-04-03T12:26:25;9.70;;;6.47;;
78308;SDS011;67566;42.022;21.356;2023-04-03T12:28:53;10.77;;;7.10;;
78308;SDS011;67566;42.022;21.356;2023-04-03T12:31:20;11.45;;;7.32;;
78308;SDS011;67566;42.022;21.356;2023-04-03T12:34:01;8.18;;;6.20;;
78308;SDS011;67566;42.022;21.356;2023-04-03T12:44:50;8.45;;;7.43;;
78308;SDS011;67566;42.022;21.356;2023-04-03T12:47:35;9.10;;;7.15;;
78308;SDS011;67566;42.022;21.356;2023-04-03T12:50:16;10.18;;;7.63;;
78308;SDS011;67566;42.022;21.356;2023-04-03T12:52:47;10.73;;;8.55;;
78308;SDS011;67566;42.022;21.356;2023-04-03T12:55:19;10.73;;;8.60;;
78308;SDS011;67566;42.022;21.356;2023-04-03T12:57:45;11.77;;;9.77;;
78308;SDS011;67566;42.022;21.356;2023-04-03T13:00:18;11.23;;;8.82;;
78308;SDS011;67566;42.022;21.356;2023-04-03T13:02:45;11.43;;;8.68;;
78308;SDS011;67566;42.022;21.356;2023-04-03T13:05:13;10.60;;;8.88;;
78308;SDS011;67566;42.022;21.356;2023-04-03T13:07:42;15.30;;;11.02;;
78308;SDS011;67566;42.022;21.356;2023-04-03T13:12:34;17.70;;;10.95;;
78308;SDS011;67566;42.022;21.356;2023-04-03T13:15:11;26.23;;;17.17;;
78308;SDS011;67566;42.022;21.356;2023-04-03T13:17:40;14.20;;;11.02;;
78308;SDS011;67566;42.022;21.356;2023-04-03T13:23:05;9.15;;;7.80;;
78308;SDS011;67566;42.022;21.356;2023-04-03T13:25:35;16.02;;;13.00;;
78308;SDS011;67566;42.022;21.356;2023-04-03T13:28:04;15.35;;;11.95;;
78308;SDS011;67566;42.022;21.356;2023-04-03T13:30:34;12.10;;;9.68;;
78308;SDS011;67566;42.022;21.356;2023-04-03T13:33:02;11.45;;;10.02;;
78308;SDS011;67566;42.022;21.356;2023-04-03T13:38:01;13.25;;;10.93;;
78308;SDS011;67566;42.022;21.356;2023-04-03T13:40:30;11.10;;;9.45;;
78308;SDS011;67566;42.022;21.356;2023-04-03T13:43:03;12.05;;;9.77;;
78308;SDS011;67566;42.022;21.356;2023-04-03T13:45:53;11.57;;;10.02;;
78308;SDS011;67566;42.022;21.356;2023-04-03T13:48:24;9.15;;;7.13;;
78308;SDS011;67566;42.022;21.356;2023-04-03T13:50:51;9.88;;;7.82;;
78308;SDS011;67566;42.022;21.356;2023-04-03T13:53:44;9.13;;;7.78;;
78308;SDS011;67566;42.022;21.356;2023-04-03T13:56:19;52.97;;;32.05;;
78308;SDS011;67566;42.022;21.356;2023-04-03T13:59:00;33.92;;;24.48;;
78308;SDS011;67566;42.022;21.356;2023-04-03T14:01:48;19.17;;;14.43;;
78308;SDS011;67566;42.022;21.356;2023-04-03T14:04:21;13.07;;;10.82;;
78308;SDS011;67566;42.022;21.356;2023-04-03T14:06:49;9.20;;;7.43;;
78308;SDS011;67566;42.022;21.356;2023-04-03T14:09:16;10.15;;;9.07;;
78308;SDS011;67566;42.022;21.356;2023-04-03T14:11:42;18.83;;;16.35;;
78308;SDS011;67566;42.022;21.356;2023-04-03T14:14:13;17.98;;;14.63;;
78308;SDS011;67566;42.022;21.356;2023-04-03T14:16:46;15.77;;;11.40;;
78308;SDS011;67566;42.022;21.356;2023-04-03T14:19:20;14.15;;;11.52;;
78308;SDS011;67566;42.022;21.356;2023-04-03T14:21:48;15.18;;;12.38;;
78308;SDS011;67566;42.022;21.356;2023-04-03T14:24:15;12.90;;;11.40;;
78308;SDS011;67566;42.022;21.356;2023-04-03T14:26:41;13.80;;;11.63;;
78308;SDS011;67566;42.022;21.356;2023-04-03T14:29:09;15.77;;;11.82;;
78308;SDS011;67566;42.022;21.356;2023-04-03T14:31:36;13.88;;;9.45;;
78308;SDS011;67566;42.022;21.356;2023-04-03T14:34:02;14.48;;;10.98;;
78308;SDS011;67566;42.022;21.356;2023-04-03T14:36:28;15.30;;;11.40;;
78308;SDS011;67566;42.022;21.356;2023-04-03T14:38:56;16.98;;;11.95;;
78308;SDS011;67566;42.022;21.356;2023-04-03T14:41:23;27.08;;;15.48;;
78308;SDS011;67566;42.022;21.356;2023-04-03T14:43:49;34.42;;;20.52;;
78308;SDS011;67566;42.022;21.356;2023-04-03T14:46:17;32.85;;;21.25;;
78308;SDS011;67566;42.022;21.356;2023-04-03T14:48:45;28.73;;;19.23;;
78308;SDS011;67566;42.022;21.356;2023-04-03T14:51:11;26.65;;;18.23;;
78308;SDS011;67566;42.022;21.356;2023-04-03T14:53:38;21.38;;;17.05;;
78308;SDS011;67566;42.022;21.356;2023-04-03T14:56:16;18.25;;;14.50;;
78308;SDS011;67566;42.022;21.356;2023-04-03T14:58:46;18.98;;;13.93;;
78308;SDS011;67566;42.022;21.356;2023-04-03T15:01:15;21.48;;;15.18;;
78308;SDS011;67566;42.022;21.356;2023-04-03T15:03:42;30.08;;;20.63;;
78308;SDS011;67566;42.022;21.356;2023-04-03T15:06:11;21.02;;;15.05;;
78308;SDS011;67566;42.022;21.356;2023-04-03T15:08:38;18.95;;;14.57;;
78308;SDS011;67566;42.022;21.356;2023-04-03T15:11:03;18.50;;;13.02;;
78308;SDS011;67566;42.022;21.356;2023-04-03T15:13:29;24.27;;;17.23;;
78308;SDS011;67566;42.022;21.356;2023-04-03T15:15:54;36.03;;;22.80;;
78308;SDS011;67566;42.022;21.356;2023-04-03T15:18:21;20.85;;;15.50;;
78308;SDS011;67566;42.022;21.356;2023-04-03T15:20:51;24.92;;;18.10;;
78308;SDS011;67566;42.022;21.356;2023-04-03T15:23:16;33.25;;;23.10;;
78308;SDS011;67566;42.022;21.356;2023-04-03T15:25:43;30.48;;;22.38;;
78308;SDS011;67566;42.022;21.356;2023-04-03T15:28:13;35.58;;;22.33;;
78308;SDS011;67566;42.022;21.356;2023-04-03T15:31:02;24.15;;;18.35;;
78308;SDS011;67566;42.022;21.356;2023-04-03T15:33:28;219.95;;;115.75;;
78308;SDS011;67566;42.022;21.356;2023-04-03T15:35:54;251.02;;;120.30;;
78308;SDS011;67566;42.022;21.356;2023-04-03T15:38:19;52.33;;;30.73;;
78308;SDS011;67566;42.022;21.356;2023-04-03T15:40:45;17.67;;;11.75;;
78308;SDS011;67566;42.022;21.356;2023-04-03T15:43:12;12.07;;;8.95;;
78308;SDS011;67566;42.022;21.356;2023-04-03T15:45:38;9.77;;;7.30;;
78308;SDS011;67566;42.022;21.356;2023-04-03T15:48:04;14.02;;;9.57;;
78308;SDS011;67566;42.022;21.356;2023-04-03T15:50:31;9.85;;;6.80;;
78308;SDS011;67566;42.022;21.356;2023-04-03T15:52:58;9.50;;;7.15;;
78308;SDS011;67566;42.022;21.356;2023-04-03T15:55:24;7.55;;;5.82;;
78308;SDS011;67566;42.022;21.356;2023-04-03T15:57:51;11.27;;;7.75;;
78308;SDS011;67566;42.022;21.356;2023-04-03T16:00:17;10.48;;;6.35;;
78308;SDS011;67566;42.022;21.356;2023-04-03T16:02:43;12.70;;;8.38;;
78308;SDS011;67566;42.022;21.356;2023-04-03T16:05:10;14.02;;;9.00;;
78308;SDS011;67566;42.022;21.356;2023-04-03T16:07:38;9.13;;;6.50;;
78308;SDS011;67566;42.022;21.356;2023-04-03T16:10:05;7.88;;;5.63;;
78308;SDS011;67566;42.022;21.356;2023-04-03T16:12:32;11.65;;;7.38;;
78308;SDS011;67566;42.022;21.356;2023-04-03T16:14:57;12.23;;;9.05;;
78308;SDS011;67566;42.022;21.356;2023-04-03T16:17:23;10.35;;;6.45;;
78308;SDS011;67566;42.022;21.356;2023-04-03T16:19:48;7.95;;;5.88;;
78308;SDS011;67566;42.022;21.356;2023-04-03T16:22:14;5.07;;;4.00;;
78308;SDS011;67566;42.022;21.356;2023-04-03T16:24:39;4.90;;;3.58;;
78308;SDS011;67566;42.022;21.356;2023-04-03T16:27:05;5.75;;;4.72;;